createdAt,value
2023-04-04T00:00:09.572Z,1004.66
2023-04-04T00:01:09.600Z,1004.67
2023-04-04T00:02:09.542Z,1004.68
2023-04-04T00:03:09.696Z,1004.61
2023-04-04T00:04:09.698Z,1004.62
2023-04-04T00:05:09.464Z,1004.59
2023-04-04T00:06:09.445Z,1004.60
2023-04-04T00:07:09.425Z,1004.58
2023-04-04T00:08:09.407Z,1004.59
2023-04-04T00:09:09.386Z,1004.57
2023-04-04T00:10:09.377Z,1004.56
2023-04-04T00:11:09.359Z,1004.57
2023-04-04T00:12:09.323Z,1004.55
2023-04-04T00:13:09.313Z,1004.58
2023-04-04T00:14:09.284Z,1004.54
2023-04-04T00:15:09.305Z,1004.54
2023-04-04T00:16:09.354Z,1004.54
2023-04-04T00:17:09.224Z,1004.59
2023-04-04T00:18:09.244Z,1004.53
2023-04-04T00:19:09.181Z,1004.55
2023-04-04T00:20:09.169Z,1004.55
2023-04-04T00:21:09.148Z,1004.56
2023-04-04T00:22:09.117Z,1004.55
2023-04-04T00:23:09.097Z,1004.53
2023-04-04T00:24:09.077Z,1004.57
2023-04-04T00:25:09.060Z,1004.52
2023-04-04T00:26:09.038Z,1004.52
2023-04-04T00:27:09.014Z,1004.55
2023-04-04T00:28:08.991Z,1004.54
2023-04-04T00:29:08.974Z,1004.58
2023-04-04T00:30:08.961Z,1004.52
2023-04-04T00:31:08.951Z,1004.52
2023-04-04T00:32:08.946Z,1004.49
2023-04-04T00:33:09.013Z,1004.47
2023-04-04T00:34:08.889Z,1004.43
2023-04-04T00:35:08.864Z,1004.44
2023-04-04T00:36:08.880Z,1004.39
2023-04-04T00:37:08.835Z,1004.37
2023-04-04T00:38:08.789Z,1004.35
2023-04-04T00:39:08.777Z,1004.39
2023-04-04T00:40:08.754Z,1004.33
2023-04-04T00:41:08.741Z,1004.30
2023-04-04T00:42:08.707Z,1004.29
2023-04-04T00:43:08.702Z,1004.27
2023-04-04T00:44:08.664Z,1004.26
2023-04-04T00:45:08.668Z,1004.26
2023-04-04T00:46:08.642Z,1004.28
2023-04-04T11:51:21.982Z,1003.35
2023-04-04T11:52:21.957Z,1003.41
2023-04-04T11:54:26.187Z,1003.34
2023-04-04T11:55:26.164Z,1003.33
2023-04-04T11:56:26.167Z,1003.37
2023-04-04T11:57:26.165Z,1003.39
2023-04-04T11:58:26.170Z,1003.34
2023-04-04T11:59:26.218Z,1003.36
2023-04-04T12:00:26.163Z,1003.37
2023-04-04T12:01:26.165Z,1003.32
2023-04-04T12:02:26.228Z,1003.31
2023-04-04T12:03:26.242Z,1003.28
2023-04-04T12:04:26.195Z,1003.26
2023-04-04T12:05:26.407Z,1003.27
2023-04-04T12:06:26.172Z,1003.18
2023-04-04T12:07:26.158Z,1003.19
2023-04-04T12:08:26.156Z,1003.21
2023-04-04T12:09:26.157Z,1003.18
2023-04-04T12:10:26.154Z,1003.17
2023-04-04T12:11:26.153Z,1003.13
2023-04-04T12:12:26.164Z,1003.13
2023-04-04T12:13:26.149Z,1003.07
2023-04-04T12:14:26.150Z,1003.13
2023-04-04T12:15:26.149Z,1003.10
2023-04-04T12:16:26.182Z,1003.14
2023-04-04T12:17:26.189Z,1003.13
2023-04-04T12:18:26.144Z,1003.11
2023-04-04T12:19:26.147Z,1003.01
2023-04-04T12:20:26.139Z,1003.03
2023-04-04T12:21:26.141Z,1003.03
2023-04-04T12:22:26.149Z,1003.06
2023-04-04T12:23:26.137Z,1003.07
2023-04-04T12:24:26.138Z,1003.04
2023-04-04T12:25:26.133Z,1003.04
2023-04-04T12:26:26.133Z,1003.01
2023-04-04T12:27:26.130Z,1003.02
2023-04-04T12:28:27.303Z,1002.99
2023-04-04T12:29:26.130Z,1002.96
2023-04-04T12:30:26.129Z,1002.97
2023-04-04T12:31:26.157Z,1002.92
2023-04-04T12:32:26.130Z,1002.93
2023-04-04T12:33:26.119Z,1002.91
2023-04-04T12:34:26.127Z,1002.92
2023-04-04T12:35:26.118Z,1002.88
2023-04-04T12:36:26.179Z,1002.91
2023-04-04T12:37:26.112Z,1002.91
2023-04-04T12:38:26.152Z,1002.88
2023-04-04T12:39:26.107Z,1002.91
2023-04-04T12:40:26.102Z,1002.89
2023-04-04T12:41:26.123Z,1002.93
2023-04-04T12:42:26.096Z,1002.88
2023-04-04T12:43:26.100Z,1002.91
2023-04-04T12:44:26.089Z,1002.86
2023-04-04T12:45:26.101Z,1002.82
2023-04-04T12:46:26.119Z,1002.82
2023-04-04T12:47:26.145Z,1002.82
2023-04-04T12:48:26.100Z,1002.80
2023-04-04T12:49:26.083Z,1002.77
2023-04-04T12:50:26.072Z,1002.77
2023-04-04T12:51:26.106Z,1002.74
2023-04-04T12:52:26.063Z,1002.76
2023-04-04T12:53:28.988Z,1002.72
2023-04-04T12:54:26.089Z,1002.76
2023-04-04T12:55:26.050Z,1002.76
2023-04-04T12:56:26.042Z,1002.71
2023-04-04T12:57:26.036Z,1002.69
2023-04-04T12:58:26.051Z,1002.69
2023-04-04T12:59:26.073Z,1002.68
2023-04-04T13:00:26.022Z,1002.66
2023-04-04T13:01:26.089Z,1002.67
2023-04-04T13:02:26.049Z,1002.61
2023-04-04T13:03:26.010Z,1002.62
2023-04-04T13:04:26.066Z,1002.61
2023-04-04T13:05:25.988Z,1002.57
2023-04-04T13:06:26.000Z,1002.58
2023-04-04T13:07:25.974Z,1002.54
2023-04-04T13:08:25.992Z,1002.56
2023-04-04T13:09:25.960Z,1002.50
2023-04-04T13:10:25.961Z,1002.48
2023-04-04T13:11:25.942Z,1002.47
2023-04-04T13:12:25.941Z,1002.48
2023-04-04T13:13:25.927Z,1002.45
2023-04-04T13:14:25.923Z,1002.45
2023-04-04T13:15:25.913Z,1002.43
2023-04-04T13:16:25.923Z,1002.43
2023-04-04T13:17:25.917Z,1002.47
2023-04-04T13:18:25.889Z,1002.46
2023-04-04T13:19:26.836Z,1002.45
2023-04-04T13:20:25.878Z,1002.44
2023-04-04T13:21:25.863Z,1002.41
2023-04-04T13:22:25.861Z,1002.44
2023-04-04T13:23:25.860Z,1002.40
2023-04-04T13:24:25.839Z,1002.39
2023-04-04T13:25:25.834Z,1002.41
2023-04-04T13:26:25.845Z,1002.36
2023-04-04T13:27:25.811Z,1002.32
2023-04-04T13:28:25.810Z,1002.36
2023-04-04T13:29:25.795Z,1002.36
2023-04-04T13:30:25.790Z,1002.31
2023-04-04T13:31:25.800Z,1002.28
2023-04-04T13:32:25.790Z,1002.22
2023-04-04T13:33:25.756Z,1002.27
2023-04-04T13:34:25.746Z,1002.32
2023-04-04T13:35:25.735Z,1002.27
2023-04-04T13:36:25.751Z,1002.22
2023-04-04T13:37:25.733Z,1002.21
2023-04-04T13:38:27.026Z,1002.24
2023-04-04T13:39:25.692Z,1002.25
2023-04-04T13:40:25.681Z,1002.25
2023-04-04T13:41:25.673Z,1002.24
2023-04-04T13:42:25.668Z,1002.24
2023-04-04T13:43:25.648Z,1002.29
2023-04-04T13:44:26.812Z,1002.23
2023-04-04T13:45:25.626Z,1002.22
2023-04-04T13:46:25.664Z,1002.19
2023-04-04T13:47:25.654Z,1002.20
2023-04-04T13:48:25.636Z,1002.19
2023-04-04T13:49:25.581Z,1002.18
2023-04-04T13:50:25.575Z,1002.15
2023-04-04T13:51:25.560Z,1002.09
2023-04-04T13:52:25.548Z,1002.11
2023-04-04T13:53:25.546Z,1002.11
2023-04-04T13:54:25.530Z,1002.06
2023-04-04T13:55:25.529Z,1002.11
2023-04-04T13:56:25.581Z,1002.11
2023-04-04T13:57:25.492Z,1002.09
2023-04-04T13:58:25.490Z,1002.08
2023-04-04T13:59:25.521Z,1002.11
2023-04-04T14:00:25.460Z,1002.08
2023-04-04T14:01:25.504Z,1002.13
2023-04-04T14:02:25.429Z,1002.10
2023-04-04T14:03:25.503Z,1002.00
2023-04-04T14:04:25.417Z,1001.97
2023-04-04T14:05:25.390Z,1001.94
2023-04-04T14:06:25.397Z,1001.99
2023-04-04T14:07:25.369Z,1001.98
2023-04-04T14:08:25.355Z,1001.96
2023-04-04T14:09:25.344Z,1001.91
2023-04-04T14:10:25.335Z,1001.92
2023-04-04T14:11:25.336Z,1001.96
2023-04-04T14:12:25.312Z,1001.88
2023-04-04T14:13:25.294Z,1001.87
2023-04-04T14:14:25.307Z,1001.83
2023-04-04T14:15:25.269Z,1001.85
2023-04-04T14:16:25.310Z,1001.81
2023-04-04T14:17:25.270Z,1001.85
2023-04-04T14:18:25.234Z,1001.78
2023-04-04T14:19:25.217Z,1001.79
2023-04-04T14:20:25.208Z,1001.77
2023-04-04T14:21:25.197Z,1001.80
2023-04-04T14:22:25.179Z,1001.75
2023-04-04T14:23:25.168Z,1001.76
2023-04-04T14:24:25.155Z,1001.71
2023-04-04T14:25:25.144Z,1001.70
2023-04-04T14:26:25.138Z,1001.68
2023-04-04T14:27:25.125Z,1001.66
2023-04-04T14:28:25.105Z,1001.65
2023-04-04T14:29:25.090Z,1001.60
2023-04-04T14:30:25.081Z,1001.63
2023-04-04T14:31:25.113Z,1001.61
2023-04-04T14:32:25.105Z,1001.60
2023-04-04T14:33:25.056Z,1001.56
2023-04-04T14:34:25.028Z,1001.62
2023-04-04T14:35:25.011Z,1001.61
2023-04-04T14:36:25.041Z,1001.56
2023-04-04T14:37:24.991Z,1001.58
2023-04-04T14:38:24.971Z,1001.55
2023-04-04T14:39:24.966Z,1001.55
2023-04-04T14:40:24.942Z,1001.57
2023-04-04T14:41:24.933Z,1001.54
2023-04-04T14:42:24.927Z,1001.50
2023-04-04T14:43:24.912Z,1001.51
2023-04-04T14:44:24.893Z,1001.47
2023-04-04T14:45:24.874Z,1001.49
2023-04-04T14:46:24.888Z,1001.49
2023-04-04T14:47:24.874Z,1001.46
2023-04-04T14:48:24.839Z,1001.51
2023-04-04T14:49:24.830Z,1001.44
2023-04-04T14:50:24.824Z,1001.49
2023-04-04T14:51:24.800Z,1001.46
2023-04-04T14:52:24.790Z,1001.41
2023-04-04T14:53:24.767Z,1001.44
2023-04-04T14:54:24.763Z,1001.41
2023-04-04T14:55:24.745Z,1001.46
2023-04-04T14:56:24.728Z,1001.41
2023-04-04T14:57:24.719Z,1001.35
2023-04-04T14:58:24.700Z,1001.39
2023-04-04T14:59:24.738Z,1001.30
2023-04-04T15:00:24.678Z,1001.32
2023-04-04T15:01:24.709Z,1001.36
2023-04-04T15:02:24.651Z,1001.35
2023-04-04T15:03:24.653Z,1001.36
2023-04-04T15:04:24.627Z,1001.33
2023-04-04T15:05:24.611Z,1001.34
2023-04-04T15:06:24.596Z,1001.42
2023-04-04T15:07:24.585Z,1001.35
2023-04-04T15:08:24.562Z,1001.36
2023-04-04T15:09:24.554Z,1001.37
2023-04-04T15:10:24.533Z,1001.36
2023-04-04T15:11:24.521Z,1001.31
2023-04-04T15:12:24.507Z,1001.33
2023-04-04T15:13:24.499Z,1001.31
2023-04-04T15:14:24.512Z,1001.35
2023-04-04T15:15:24.468Z,1001.34
2023-04-04T15:16:24.471Z,1001.34
2023-04-04T15:17:24.449Z,1001.31
2023-04-04T15:18:24.431Z,1001.30
2023-04-04T15:19:24.413Z,1001.30
2023-04-04T15:20:24.422Z,1001.26
2023-04-04T15:21:24.383Z,1001.20
2023-04-04T15:22:24.370Z,1001.33
2023-04-04T15:23:24.352Z,1001.30
2023-04-04T15:24:24.354Z,1001.32
2023-04-04T15:25:24.331Z,1001.30
2023-04-04T15:26:24.311Z,1001.33
2023-04-04T15:27:24.316Z,1001.29
2023-04-04T15:28:24.286Z,1001.31
2023-04-04T15:29:24.270Z,1001.27
2023-04-04T15:30:24.251Z,1001.28
2023-04-04T15:31:24.264Z,1001.26
2023-04-04T15:32:24.288Z,1001.23
2023-04-04T15:33:24.215Z,1001.26
2023-04-04T15:34:24.202Z,1001.26
2023-04-04T15:35:24.180Z,1001.24
2023-04-04T15:36:24.218Z,1001.23
2023-04-04T15:37:24.184Z,1001.21
2023-04-04T15:38:24.144Z,1001.22
2023-04-04T15:39:24.133Z,1001.22
2023-04-04T15:40:24.110Z,1001.23
2023-04-04T15:41:24.097Z,1001.24
2023-04-04T15:42:24.082Z,1001.21
2023-04-04T15:43:24.068Z,1001.20
2023-04-04T15:44:24.061Z,1001.21
2023-04-04T15:45:24.045Z,1001.18
2023-04-04T15:46:24.080Z,1001.17
2023-04-04T15:47:24.050Z,1001.13
2023-04-04T15:48:23.999Z,1001.13
2023-04-04T15:49:24.029Z,1001.11
2023-04-04T15:50:23.972Z,1001.08
2023-04-04T15:51:23.956Z,1001.05
2023-04-04T15:52:23.981Z,1001.06
2023-04-04T15:53:23.940Z,1001.04
2023-04-04T15:54:23.917Z,1001.05
2023-04-04T15:55:23.894Z,1001.07
2023-04-04T15:56:23.887Z,1001.06
2023-04-04T15:57:23.889Z,1001.05
2023-04-04T15:58:23.863Z,1001.01
2023-04-04T15:59:23.961Z,1001.07
2023-04-04T16:00:23.833Z,1001.06
2023-04-04T16:01:23.996Z,1001.03
2023-04-04T16:02:23.860Z,1001.02
2023-04-04T16:03:24.091Z,1001.01
2023-04-04T16:04:23.922Z,1001.01
2023-04-04T16:05:23.763Z,1001.00
2023-04-04T16:06:23.751Z,1000.98
2023-04-04T16:07:23.827Z,1001.00
2023-04-04T16:08:23.715Z,1000.94
2023-04-04T16:09:23.699Z,1000.98
2023-04-04T16:10:23.723Z,1000.99
2023-04-04T16:11:23.683Z,1000.97
2023-04-04T16:12:23.654Z,1000.92
2023-04-04T16:13:23.640Z,1000.89
2023-04-04T16:14:23.629Z,1000.95
2023-04-04T16:15:23.621Z,1000.95
2023-04-04T16:16:23.682Z,1000.95
2023-04-04T16:17:23.587Z,1000.92
2023-04-04T16:18:23.598Z,1000.95
2023-04-04T16:19:23.565Z,1000.92
2023-04-04T16:20:23.575Z,1000.96
2023-04-04T16:21:23.529Z,1000.96
2023-04-04T16:22:23.516Z,1000.95
2023-04-04T16:23:23.497Z,1000.94
2023-04-04T16:24:23.492Z,1000.97
2023-04-04T16:25:23.537Z,1000.94
2023-04-04T16:26:23.459Z,1000.95
2023-04-04T16:27:23.471Z,1000.92
2023-04-04T16:28:23.438Z,1000.90
2023-04-04T16:29:23.499Z,1000.91
2023-04-04T16:30:23.427Z,1000.92
2023-04-04T16:31:23.415Z,1000.92
2023-04-04T16:32:23.414Z,1000.93
2023-04-04T16:33:23.349Z,1000.94
2023-04-04T16:34:23.356Z,1000.87
2023-04-04T16:35:23.331Z,1000.88
2023-04-04T16:36:23.364Z,1000.85
2023-04-04T16:37:23.328Z,1000.84
2023-04-04T16:38:23.280Z,1000.81
2023-04-04T16:39:23.286Z,1000.84
2023-04-04T16:40:23.263Z,1000.78
2023-04-04T16:41:23.262Z,1000.74
2023-04-04T16:42:23.222Z,1000.75
2023-04-04T16:43:23.208Z,1000.75
2023-04-04T16:44:23.186Z,1000.74
2023-04-04T16:45:23.192Z,1000.74
2023-04-04T16:46:23.210Z,1000.75
2023-04-04T16:47:23.139Z,1000.77
2023-04-04T16:48:23.143Z,1000.72
2023-04-04T16:49:23.137Z,1000.71
2023-04-04T16:50:23.202Z,1000.69
2023-04-04T16:51:23.209Z,1000.73
2023-04-04T16:52:23.071Z,1000.70
2023-04-04T16:53:23.077Z,1000.69
2023-04-04T16:54:23.084Z,1000.72
2023-04-04T16:55:23.044Z,1000.70
2023-04-04T16:56:23.588Z,1000.73
2023-04-04T16:57:23.043Z,1000.70
2023-04-04T16:58:23.014Z,1000.74
2023-04-04T16:59:22.995Z,1000.72
2023-04-04T17:00:22.947Z,1000.69
2023-04-04T17:01:23.216Z,1000.73
2023-04-04T17:02:22.922Z,1000.70
2023-04-04T17:03:22.898Z,1000.69
2023-04-04T17:04:22.986Z,1000.71
2023-04-04T17:05:22.899Z,1000.75
2023-04-04T17:06:22.886Z,1000.70
2023-04-04T17:07:22.848Z,1000.67
2023-04-04T17:08:22.838Z,1000.72
2023-04-04T17:09:22.852Z,1000.70
2023-04-04T17:10:22.814Z,1000.69
2023-04-04T17:11:22.781Z,1000.73
2023-04-04T17:12:22.777Z,1000.73
2023-04-04T17:13:22.803Z,1000.71
2023-04-04T17:14:22.747Z,1000.68
2023-04-04T17:15:22.740Z,1000.74
2023-04-04T17:16:22.698Z,1000.75
2023-04-04T17:17:22.697Z,1000.70
2023-04-04T17:18:22.672Z,1000.72
2023-04-04T17:19:22.651Z,1000.73
2023-04-04T17:20:22.633Z,1000.75
2023-04-04T17:21:22.616Z,1000.81
2023-04-04T17:22:22.604Z,1000.73
2023-04-04T17:23:22.588Z,1000.79
2023-04-04T17:24:22.590Z,1000.81
2023-04-04T17:25:22.576Z,1000.81
2023-04-04T17:26:22.542Z,1000.80
2023-04-04T17:27:22.578Z,1000.84
2023-04-04T17:28:22.505Z,1000.82
2023-04-04T17:29:22.520Z,1000.83
2023-04-04T17:30:22.513Z,1000.80
2023-04-04T17:31:22.503Z,1000.83
2023-04-04T17:32:22.480Z,1000.80
2023-04-04T17:33:22.426Z,1000.82
2023-04-04T17:34:22.414Z,1000.87
2023-04-04T17:35:22.408Z,1000.83
2023-04-04T17:36:22.458Z,1000.87
2023-04-04T17:37:22.357Z,1000.89
2023-04-04T17:38:22.360Z,1000.88
2023-04-04T17:39:22.326Z,1000.89
2023-04-04T17:40:22.311Z,1000.83
2023-04-04T17:41:22.307Z,1000.88
2023-04-04T17:42:22.299Z,1000.85
2023-04-04T17:43:22.264Z,1000.87
2023-04-04T17:44:22.286Z,1000.88
2023-04-04T17:45:22.230Z,1000.85
2023-04-04T17:46:22.230Z,1000.86
2023-04-04T17:47:22.197Z,1000.91
2023-04-04T17:48:22.222Z,1000.87
2023-04-04T17:49:22.183Z,1000.92
2023-04-04T17:50:22.183Z,1000.92
2023-04-04T17:51:22.252Z,1000.88
2023-04-04T17:52:22.117Z,1000.92
2023-04-04T17:53:23.629Z,1000.96
2023-04-04T17:54:22.137Z,1000.95
2023-04-04T17:55:22.078Z,1000.96
2023-04-04T17:56:22.058Z,1000.95
2023-04-04T17:57:22.046Z,1000.97
2023-04-04T17:58:22.023Z,1000.98
2023-04-04T17:59:22.050Z,1000.96
2023-04-04T18:00:22.130Z,1000.97
2023-04-04T18:01:22.085Z,1000.93
2023-04-04T18:02:22.086Z,1000.95
2023-04-04T18:03:22.134Z,1000.95
2023-04-04T18:04:22.025Z,1000.95
2023-04-04T18:05:22.032Z,1000.96
2023-04-04T18:06:22.004Z,1000.92
2023-04-04T18:07:22.198Z,1000.93
2023-04-04T18:08:21.991Z,1000.91
2023-04-04T18:09:21.935Z,1000.94
2023-04-04T18:10:22.013Z,1000.97
2023-04-04T18:11:21.927Z,1000.96
2023-04-04T18:12:21.959Z,1000.96
2023-04-04T18:13:21.886Z,1000.97
2023-04-04T18:14:21.885Z,1000.96
2023-04-04T18:15:21.843Z,1000.95
2023-04-04T18:16:21.859Z,1000.96
2023-04-04T18:17:21.801Z,1000.94
2023-04-04T18:18:21.811Z,1000.99
2023-04-04T18:19:21.785Z,1000.98
2023-04-04T18:20:34.022Z,1000.99
2023-04-04T18:21:21.739Z,1000.97
2023-04-04T18:22:21.728Z,1000.99
2023-04-04T18:23:21.741Z,1001.00
2023-04-04T18:24:21.685Z,1000.99
2023-04-04T18:25:21.709Z,1000.96
2023-04-04T18:26:21.676Z,1001.02
2023-04-04T18:27:21.639Z,1001.01
2023-04-04T18:28:21.631Z,1001.01
2023-04-04T18:29:21.610Z,1001.03
2023-04-04T18:30:21.621Z,1001.03
2023-04-04T18:31:21.656Z,1001.02
2023-04-04T18:32:21.602Z,1001.06
2023-04-04T18:33:21.554Z,1001.05
2023-04-04T18:34:21.510Z,1001.09
2023-04-04T18:35:21.529Z,1001.10
2023-04-04T18:36:21.556Z,1001.10
2023-04-04T18:37:21.506Z,1001.12
2023-04-04T18:38:21.504Z,1001.09
2023-04-04T18:39:21.442Z,1001.11
2023-04-04T18:40:21.410Z,1001.13
2023-04-04T18:41:21.394Z,1001.14
2023-04-04T18:42:21.386Z,1001.17
2023-04-04T18:43:21.355Z,1001.14
2023-04-04T18:44:21.342Z,1001.21
2023-04-04T18:45:29.989Z,1001.22
2023-04-04T18:46:21.358Z,1001.23
2023-04-04T18:47:21.298Z,1001.22
2023-04-04T18:48:21.304Z,1001.24
2023-04-04T18:49:21.282Z,1001.22
2023-04-04T18:50:21.343Z,1001.24
2023-04-04T18:51:23.501Z,1001.25
2023-04-04T18:52:21.223Z,1001.25
2023-04-04T18:53:21.198Z,1001.27
2023-04-04T18:54:21.174Z,1001.26
2023-04-04T18:55:21.178Z,1001.31
2023-04-04T18:56:21.132Z,1001.27
2023-04-04T18:57:21.123Z,1001.26
2023-04-04T18:58:21.100Z,1001.24
2023-04-04T18:59:21.025Z,1001.29
2023-04-04T19:00:21.112Z,1001.26
2023-04-04T19:01:21.131Z,1001.24
2023-04-04T19:02:21.052Z,1001.20
2023-04-04T19:03:21.056Z,1001.28
2023-04-04T19:04:21.016Z,1001.28
2023-04-04T19:05:21.023Z,1001.30
2023-04-04T19:06:20.958Z,1001.27
2023-04-04T19:07:20.946Z,1001.29
2023-04-04T19:08:20.930Z,1001.29
2023-04-04T19:09:20.934Z,1001.35
2023-04-04T19:10:20.922Z,1001.29
2023-04-04T19:11:20.888Z,1001.24
2023-04-04T19:12:20.873Z,1001.29
2023-04-04T19:13:20.868Z,1001.24
2023-04-04T19:14:20.849Z,1001.27
2023-04-04T19:15:20.814Z,1001.30
2023-04-04T19:16:20.831Z,1001.28
2023-04-04T19:17:20.788Z,1001.30
2023-04-04T19:18:20.775Z,1001.28
2023-04-04T19:19:20.738Z,1001.33
2023-04-04T19:20:20.720Z,1001.35
2023-04-04T19:21:20.743Z,1001.35
2023-04-04T19:22:20.750Z,1001.34
2023-04-04T19:23:20.713Z,1001.30
2023-04-04T19:24:20.669Z,1001.34
2023-04-04T19:25:20.632Z,1001.31
2023-04-04T19:26:20.606Z,1001.33
2023-04-04T19:27:20.639Z,1001.27
2023-04-04T19:28:20.641Z,1001.23
2023-04-04T19:29:20.642Z,1001.27
2023-04-04T19:30:20.572Z,1001.30
2023-04-04T19:31:20.574Z,1001.30
2023-04-04T19:32:20.509Z,1001.32
2023-04-04T19:33:21.288Z,1001.33
2023-04-04T19:34:20.503Z,1001.34
2023-04-04T19:35:20.535Z,1001.32
2023-04-04T19:36:20.466Z,1001.32
2023-04-04T19:37:20.446Z,1001.33
2023-04-04T19:38:20.405Z,1001.37
2023-04-04T19:39:20.442Z,1001.35
2023-04-04T19:40:21.213Z,1001.37
2023-04-04T19:41:20.366Z,1001.32
2023-04-04T19:42:20.360Z,1001.34
2023-04-04T19:43:20.317Z,1001.33
2023-04-04T19:44:20.309Z,1001.37
2023-04-04T19:45:20.272Z,1001.36
2023-04-04T19:46:20.314Z,1001.34
2023-04-04T19:47:20.230Z,1001.34
2023-04-04T19:48:20.331Z,1001.35
2023-04-04T19:49:20.257Z,1001.34
2023-04-04T19:50:20.201Z,1001.32
2023-04-04T19:51:20.191Z,1001.34
2023-04-04T19:52:20.139Z,1001.32
2023-04-04T19:53:20.208Z,1001.33
2023-04-04T19:54:20.182Z,1001.34
2023-04-04T19:55:20.154Z,1001.35
2023-04-04T19:56:20.100Z,1001.33
2023-04-04T19:57:20.098Z,1001.32
2023-04-04T19:58:20.089Z,1001.33
2023-04-04T19:59:20.066Z,1001.33
2023-04-04T20:00:20.029Z,1001.30
2023-04-04T20:01:20.041Z,1001.32
2023-04-04T20:02:20.061Z,1001.32
2023-04-04T20:03:19.989Z,1001.26
2023-04-04T20:04:19.968Z,1001.31
2023-04-04T20:05:19.915Z,1001.29
2023-04-04T20:06:19.897Z,1001.29
2023-04-04T20:07:19.922Z,1001.30
2023-04-04T20:08:19.854Z,1001.33
2023-04-04T20:09:19.864Z,1001.31
2023-04-04T20:10:19.847Z,1001.31
2023-04-04T20:11:19.866Z,1001.31
2023-04-04T20:12:19.834Z,1001.33
2023-04-04T20:13:19.763Z,1001.32
2023-04-04T20:14:19.778Z,1001.31
2023-04-04T20:15:19.746Z,1001.33
2023-04-04T20:16:19.720Z,1001.30
2023-04-04T20:17:19.705Z,1001.32
2023-04-04T20:18:19.690Z,1001.34
2023-04-04T20:19:19.705Z,1001.32
2023-04-04T20:20:19.627Z,1001.36
2023-04-04T20:21:19.648Z,1001.34
2023-04-04T20:22:19.644Z,1001.34
2023-04-04T20:23:19.992Z,1001.36
2023-04-04T20:24:19.576Z,1001.36
2023-04-04T20:25:19.578Z,1001.35
2023-04-04T20:26:19.517Z,1001.37
2023-04-04T20:27:19.524Z,1001.35
2023-04-04T20:28:19.524Z,1001.39
2023-04-04T20:29:19.528Z,1001.42
2023-04-04T20:30:19.449Z,1001.42
2023-04-04T20:31:19.483Z,1001.41
2023-04-04T20:32:19.406Z,1001.46
2023-04-04T20:33:19.414Z,1001.50
2023-04-04T20:34:19.425Z,1001.46
2023-04-04T20:35:19.357Z,1001.49
2023-04-04T20:36:19.368Z,1001.47
2023-04-04T20:37:19.361Z,1001.46
2023-04-04T20:38:19.301Z,1001.46
2023-04-04T20:39:19.300Z,1001.47
2023-04-04T20:40:19.287Z,1001.48
2023-04-04T20:41:19.311Z,1001.40
2023-04-04T20:42:19.248Z,1001.45
2023-04-04T20:43:19.254Z,1001.42
2023-04-04T20:44:19.194Z,1001.46
2023-04-04T20:45:19.175Z,1001.47
2023-04-04T20:46:19.258Z,1001.45
2023-04-04T20:47:19.194Z,1001.45
2023-04-04T20:48:19.171Z,1001.46
2023-04-04T20:49:19.113Z,1001.45
2023-04-04T20:50:19.248Z,1001.46
2023-04-04T20:51:19.110Z,1001.49
2023-04-04T20:52:19.083Z,1001.49
2023-04-04T20:53:19.103Z,1001.52
2023-04-04T20:54:19.040Z,1001.50
2023-04-04T20:55:19.006Z,1001.50
2023-04-04T20:56:18.998Z,1001.48
2023-04-04T20:57:18.976Z,1001.51
2023-04-04T20:58:18.963Z,1001.50
2023-04-04T20:59:19.044Z,1001.54
2023-04-04T21:00:18.936Z,1001.49
2023-04-04T21:01:18.933Z,1001.50
2023-04-04T21:02:18.934Z,1001.46
2023-04-04T21:03:18.900Z,1001.50
2023-04-04T21:04:18.941Z,1001.50
2023-04-04T21:05:18.811Z,1001.52
2023-04-04T21:06:18.790Z,1001.51
2023-04-04T21:07:18.770Z,1001.53
2023-04-04T21:08:18.794Z,1001.54
2023-04-04T21:09:18.756Z,1001.57
2023-04-04T21:10:18.786Z,1001.49
2023-04-04T21:11:18.707Z,1001.52
2023-04-04T21:12:18.718Z,1001.50
2023-04-04T21:13:18.667Z,1001.50
2023-04-04T21:14:18.663Z,1001.47
2023-04-04T21:15:18.649Z,1001.47
2023-04-04T21:16:18.676Z,1001.50
2023-04-04T21:17:18.620Z,1001.48
2023-04-04T21:18:18.602Z,1001.44
2023-04-04T21:19:18.544Z,1001.44
2023-04-04T21:20:18.556Z,1001.43
2023-04-04T21:21:18.553Z,1001.44
2023-04-04T21:22:18.566Z,1001.39
2023-04-04T21:23:18.471Z,1001.48
2023-04-04T21:24:18.482Z,1001.44
2023-04-04T21:25:18.445Z,1001.41
2023-04-04T21:26:18.442Z,1001.45
2023-04-04T21:27:18.410Z,1001.42
2023-04-04T21:28:18.561Z,1001.45
2023-04-04T21:29:18.376Z,1001.46
2023-04-04T21:30:18.349Z,1001.47
2023-04-04T21:31:18.445Z,1001.48
2023-04-04T21:32:18.338Z,1001.49
2023-04-04T21:33:18.347Z,1001.47
2023-04-04T21:34:18.162Z,1001.45
2023-04-04T21:35:18.138Z,1001.42
2023-04-04T21:36:18.122Z,1001.42
2023-04-04T21:37:18.102Z,1001.42
2023-04-04T21:38:18.083Z,1001.42
2023-04-04T21:39:18.647Z,1001.41
2023-04-04T21:40:18.047Z,1001.47
2023-04-04T21:41:18.026Z,1001.43
2023-04-04T21:42:18.177Z,1001.43
2023-04-04T21:43:17.986Z,1001.40
2023-04-04T21:44:17.987Z,1001.48
2023-04-04T21:45:17.957Z,1001.42
